Time;durP1;ratioP1;P1;durP2;ratioP2;P2;SDS_P1;SDS_P2;PMS_P1;PMS_P2;Temp;Humidity;BMP_temperature;BMP_pressure;BME280_temperature;BME280_humidity;BME280_pressure;Samples;Min_cycle;Max_cycle;Signal;HPM_P1;HPM_P2
2021/05/27 00:00:30;;;;;;;1.08;0.30;;;21.20;52.90;;;;;;4997176;28;20033;-76
2021/05/27 00:02:58;;;;;;;2.17;0.20;;;21.50;52.10;;;;;;4999009;28;20104;-74
2021/05/27 00:05:26;;;;;;;1.13;0.52;;;21.90;51.20;;;;;;4992321;28;20052;-76
2021/05/27 00:07:54;;;;;;;0.90;0.20;;;22.50;46.10;;;;;;5003465;28;20037;-74
2021/05/27 00:10:27;;;;;;;0.90;0.28;;;22.50;48.50;;;;;;5000163;28;20506;-77
2021/05/27 00:12:55;;;;;;;0.77;0.30;;;22.30;50.70;;;;;;5001257;28;20042;-81
2021/05/27 00:15:26;;;;;;;0.68;0.20;;;22.80;46.50;;;;;;4985519;28;20045;-77
2021/05/27 00:17:54;;;;;;;1.25;0.32;;;22.90;48.70;;;;;;4987893;28;20019;-74
2021/05/27 00:20:22;;;;;;;0.95;0.60;;;22.90;46.10;;;;;;4990393;28;20673;-76
2021/05/27 00:22:50;;;;;;;36.20;4.53;;;22.70;47.70;;;;;;4999726;28;20029;-74
2021/05/27 00:25:18;;;;;;;0.88;0.20;;;22.80;48.50;;;;;;4996750;28;20034;-78
2021/05/27 00:27:47;;;;;;;1.23;0.28;;;22.90;45.40;;;;;;5002732;28;20512;-80
2021/05/27 00:30:15;;;;;;;1.25;0.25;;;23.10;46.00;;;;;;4992914;28;20048;-83
2021/05/27 00:32:43;;;;;;;1.30;0.43;;;23.50;47.70;;;;;;4997453;28;20030;-77
2021/05/27 00:35:12;;;;;;;1.58;0.50;;;23.60;47.00;;;;;;4988444;28;20042;-81
2021/05/27 00:37:40;;;;;;;1.73;0.40;;;23.50;45.10;;;;;;4992651;28;20354;-75
2021/05/27 00:40:10;;;;;;;0.73;0.20;;;23.60;47.70;;;;;;4994390;28;20198;-79
2021/05/27 00:42:38;;;;;;;2.10;0.68;;;24.00;45.40;;;;;;4995584;28;20049;-80
2021/05/27 00:45:10;;;;;;;2.53;0.30;;;23.90;45.00;;;;;;4992914;28;20034;-78
2021/05/27 00:47:39;;;;;;;0.55;0.20;;;24.20;46.90;;;;;;4999318;28;20030;-74
2021/05/27 00:50:23;;;;;;;0.85;0.13;;;24.70;41.40;;;;;;4997375;28;20050;-72
2021/05/27 00:52:52;;;;;;;2.00;0.60;;;24.40;41.00;;;;;;4991013;28;20022;-73
2021/05/27 00:55:23;;;;;;;0.63;0.20;;;24.40;45.20;;;;;;4994605;28;20053;-73
2021/05/27 00:57:51;;;;;;;2.33;0.40;;;24.80;41.80;;;;;;4994787;28;20485;-75
2021/05/27 01:00:24;;;;;;;0.80;0.20;;;24.60;39.60;;;;;;4992463;28;20987;-74
2021/05/27 01:02:52;;;;;;;1.02;0.20;;;24.80;41.10;;;;;;4985664;28;20406;-80
2021/05/27 01:05:20;;;;;;;3.38;0.40;;;24.80;40.90;;;;;;4989505;28;20033;-79
2021/05/27 01:07:48;;;;;;;1.83;0.38;;;25.00;40.70;;;;;;4989236;28;20037;-80
2021/05/27 01:10:16;;;;;;;2.28;0.30;;;24.70;42.20;;;;;;4993086;28;20843;-80
2021/05/27 01:12:43;;;;;;;1.00;0.25;;;24.90;39.80;;;;;;4992836;28;20033;-76
2021/05/27 01:15:30;;;;;;;2.05;0.20;;;24.90;40.50;;;;;;4995753;28;20081;-79
2021/05/27 01:18:00;;;;;;;6.15;0.30;;;25.00;40.00;;;;;;4991011;28;20030;-77
2021/05/27 01:20:30;;;;;;;2.05;0.50;;;25.10;41.20;;;;;;4996604;28;20052;-80
2021/05/27 01:22:57;;;;;;;3.63;0.30;;;25.50;40.20;;;;;;4996829;28;20491;-78
2021/05/27 01:25:25;;;;;;;0.73;0.20;;;26.00;40.10;;;;;;4992190;28;20034;-76
2021/05/27 01:27:52;;;;;;;0.60;0.25;;;25.80;38.50;;;;;;4996298;28;20031;-78
2021/05/27 01:30:20;;;;;;;0.98;0.43;;;25.70;38.10;;;;;;4992358;28;20037;-77
2021/05/27 01:32:48;;;;;;;2.58;0.28;;;25.90;38.20;;;;;;4996767;28;20030;-74
2021/05/27 01:35:21;;;;;;;1.08;0.40;;;26.00;36.70;;;;;;4974778;28;20080;-74
2021/05/27 01:37:49;;;;;;;2.67;0.20;;;26.00;41.90;;;;;;4985185;28;20556;-78
2021/05/27 01:40:22;;;;;;;1.05;0.20;;;26.10;39.00;;;;;;4994144;28;20038;-77
2021/05/27 01:42:50;;;;;;;0.52;0.40;;;26.20;38.60;;;;;;4991006;28;20121;-74
2021/05/27 01:45:18;;;;;;;1.63;0.10;;;26.10;36.60;;;;;;4993502;28;20034;-76
2021/05/27 01:47:46;;;;;;;0.43;0.10;;;26.30;37.30;;;;;;4994719;28;20427;-74
2021/05/27 01:50:20;;;;;;;0.35;0.10;;;26.40;38.40;;;;;;4989410;28;20136;-75
2021/05/27 01:52:49;;;;;;;6.78;0.40;;;26.70;38.80;;;;;;5000275;28;20028;-76
2021/05/27 01:55:17;;;;;;;0.40;0.17;;;26.70;38.10;;;;;;4996439;28;20108;-73
2021/05/27 01:57:44;;;;;;;2.70;0.63;;;26.80;41.10;;;;;;4993556;28;20089;-74
2021/05/27 02:00:12;;;;;;;1.60;0.20;;;27.00;37.80;;;;;;5002918;28;20034;-77
2021/05/27 02:02:40;;;;;;;0.40;0.10;;;26.80;38.70;;;;;;4991984;28;20505;-74
2021/05/27 02:05:08;;;;;;;1.35;0.20;;;27.20;38.20;;;;;;4992600;28;20026;-74
2021/05/27 02:07:35;;;;;;;0.68;0.20;;;27.40;37.10;;;;;;4994714;28;20026;-76
2021/05/27 02:10:03;;;;;;;1.35;0.10;;;27.00;39.30;;;;;;4994167;28;20085;-73
2021/05/27 02:12:30;;;;;;;1.63;0.38;;;26.60;35.70;;;;;;4997481;28;20033;-76
2021/05/27 02:14:58;;;;;;;0.55;0.40;;;26.40;38.80;;;;;;4994403;28;20034;-75
2021/05/27 02:17:25;;;;;;;0.73;0.20;;;26.90;39.70;;;;;;5000976;28;20560;-76
2021/05/27 02:19:53;;;;;;;1.63;0.20;;;26.80;38.50;;;;;;5000285;28;20064;-76
2021/05/27 02:22:20;;;;;;;1.48;0.20;;;26.90;38.50;;;;;;4991652;28;20018;-77
2021/05/27 02:24:48;;;;;;;1.38;0.40;;;27.10;37.50;;;;;;4993763;28;20189;-78
2021/05/27 02:27:15;;;;;;;0.43;0.25;;;27.10;38.80;;;;;;4985030;28;20305;-74
2021/05/27 02:29:43;;;;;;;0.65;0.10;;;27.10;37.70;;;;;;4991579;28;21341;-75
2021/05/27 02:32:10;;;;;;;0.60;0.20;;;26.80;37.90;;;;;;4992337;28;20388;-75
2021/05/27 02:34:38;;;;;;;0.30;0.10;;;26.90;37.90;;;;;;4988299;28;20046;-77
2021/05/27 02:37:09;;;;;;;0.40;0.10;;;26.70;38.60;;;;;;4994511;28;20050;-75
2021/05/27 02:39:36;;;;;;;0.55;0.20;;;26.70;37.60;;;;;;4989500;28;20049;-79
2021/05/27 02:42:04;;;;;;;1.35;0.15;;;26.70;38.70;;;;;;5004348;28;20041;-77
2021/05/27 02:44:32;;;;;;;1.13;0.20;;;26.30;38.50;;;;;;4990412;28;20564;-77
2021/05/27 02:46:59;;;;;;;1.58;0.25;;;26.20;39.40;;;;;;4992160;28;20052;-75
2021/05/27 02:49:27;;;;;;;0.43;0.15;;;26.20;40.80;;;;;;4990028;28;20038;-75
2021/05/27 02:51:54;;;;;;;1.40;0.22;;;26.10;39.70;;;;;;4995523;28;20437;-77
2021/05/27 02:54:21;;;;;;;1.38;0.25;;;26.20;38.70;;;;;;4997790;28;20029;-76
2021/05/27 02:56:49;;;;;;;0.82;0.30;;;26.10;38.00;;;;;;4994036;28;20041;-76
2021/05/27 02:59:16;;;;;;;0.63;0.20;;;25.70;39.80;;;;;;4997689;28;20358;-77
2021/05/27 03:01:44;;;;;;;1.58;0.20;;;25.90;40.60;;;;;;4997919;28;20032;-79
2021/05/27 03:04:11;;;;;;;1.13;0.10;;;25.50;39.80;;;;;;4995434;28;20030;-75
2021/05/27 03:06:39;;;;;;;2.90;0.20;;;25.40;41.90;;;;;;4988227;28;20018;-74
2021/05/27 03:09:07;;;;;;;0.40;0.10;;;25.10;39.60;;;;;;4992806;28;20038;-75
2021/05/27 03:11:34;;;;;;;3.58;0.30;;;24.80;38.70;;;;;;4986152;28;20385;-76
2021/05/27 03:14:02;;;;;;;0.47;0.10;;;24.90;39.80;;;;;;5004900;28;20612;-74
2021/05/27 03:16:29;;;;;;;0.68;0.10;;;24.80;41.10;;;;;;4994944;28;20030;-78
2021/05/27 03:18:56;;;;;;;1.00;0.20;;;24.90;39.60;;;;;;4996316;28;20030;-73
2021/05/27 03:21:25;;;;;;;1.90;0.10;;;24.80;41.50;;;;;;4991544;28;20062;-75
2021/05/27 03:23:52;;;;;;;1.08;0.28;;;24.30;40.70;;;;;;5001612;28;20026;-75
2021/05/27 03:26:20;;;;;;;1.40;0.20;;;23.90;41.30;;;;;;4993824;28;20042;-76
2021/05/27 03:28:47;;;;;;;0.63;0.10;;;23.50;41.00;;;;;;4993414;28;20026;-75
2021/05/27 03:31:14;;;;;;;2.08;0.10;;;23.20;43.80;;;;;;4972159;28;20088;-76
2021/05/27 03:33:42;;;;;;;1.35;0.20;;;23.20;44.70;;;;;;4983011;28;20888;-74
2021/05/27 03:36:09;;;;;;;1.55;0.20;;;22.70;42.80;;;;;;4992950;28;20049;-75
2021/05/27 03:38:37;;;;;;;3.22;0.20;;;22.40;43.50;;;;;;4996277;28;20109;-76
2021/05/27 03:41:04;;;;;;;2.40;0.30;;;22.20;44.10;;;;;;4992960;28;20034;-75
2021/05/27 03:43:31;;;;;;;0.50;0.45;;;21.80;44.40;;;;;;4992105;28;20022;-79
2021/05/27 03:46:00;;;;;;;0.70;0.15;;;21.50;44.60;;;;;;4995037;28;20120;-76
2021/05/27 03:48:27;;;;;;;0.35;0.10;;;21.30;46.20;;;;;;5000593;28;20030;-76
2021/05/27 03:50:55;;;;;;;2.22;0.40;;;21.10;46.20;;;;;;4991303;28;20081;-75
2021/05/27 03:53:23;;;;;;;1.08;0.10;;;20.90;46.90;;;;;;4992983;28;20023;-76
2021/05/27 03:55:51;;;;;;;1.65;0.17;;;20.70;47.50;;;;;;4995896;28;20497;-74
2021/05/27 04:01:04;;;;;;;3.40;0.50;;;20.50;47.30;;;;;;4993384;28;20072;-77
2021/05/27 04:07:08;;;;;;;1.85;0.35;;;20.50;47.40;;;;;;4995402;28;20488;-79
2021/05/27 04:09:04;;;;;;;0.47;0.17;;;20.20;48.10;;;;;;4996243;28;20029;-76
2021/05/27 04:11:31;;;;;;;0.63;0.30;;;20.10;48.20;;;;;;4991416;28;20532;-76
2021/05/27 04:13:59;;;;;;;0.80;0.00;;;20.00;48.40;;;;;;4996048;28;20034;-76
2021/05/27 04:16:26;;;;;;;2.22;0.20;;;19.80;49.70;;;;;;4993673;28;20034;-78
2021/05/27 04:18:54;;;;;;;1.00;0.20;;;19.60;49.70;;;;;;4996670;28;20028;-79
2021/05/27 04:21:22;;;;;;;0.88;0.30;;;19.70;50.30;;;;;;4990240;28;20034;-72
2021/05/27 04:23:49;;;;;;;0.30;0.10;;;19.70;50.40;;;;;;4997028;28;20028;-74
2021/05/27 04:26:18;;;;;;;0.68;0.10;;;19.60;49.70;;;;;;4996703;28;20133;-75
2021/05/27 04:28:47;;;;;;;0.30;0.20;;;19.60;50.50;;;;;;4994000;28;20026;-74
2021/05/27 04:31:18;;;;;;;1.67;0.10;;;19.40;50.60;;;;;;4992653;28;20449;-77
2021/05/27 04:33:46;;;;;;;1.08;0.10;;;19.30;50.70;;;;;;5006385;28;20034;-77
2021/05/27 04:36:15;;;;;;;0.93;0.20;;;19.40;50.50;;;;;;4993278;28;20125;-75
2021/05/27 04:38:44;;;;;;;1.65;0.52;;;19.40;50.70;;;;;;4997950;28;20041;-74
2021/05/27 04:41:12;;;;;;;0.88;0.10;;;19.40;51.00;;;;;;4988889;28;20511;-74
2021/05/27 04:43:40;;;;;;;0.40;0.08;;;19.20;51.40;;;;;;4990236;28;20385;-76
2021/05/27 04:46:08;;;;;;;1.55;0.60;;;19.20;52.00;;;;;;4987414;28;20141;-75
2021/05/27 04:48:37;;;;;;;0.20;0.10;;;19.10;50.20;;;;;;4990594;28;20053;-75
2021/05/27 04:51:05;;;;;;;1.33;0.25;;;19.10;50.70;;;;;;4996485;28;20046;-75
2021/05/27 04:53:32;;;;;;;0.22;0.10;;;19.00;50.20;;;;;;4993611;28;20035;-77
2021/05/27 04:56:00;;;;;;;0.38;0.10;;;19.00;51.00;;;;;;4989838;28;20046;-76
2021/05/27 04:58:29;;;;;;;0.73;0.10;;;19.10;52.00;;;;;;4988565;28;20484;-73
2021/05/27 05:00:59;;;;;;;5.65;0.32;;;19.10;51.90;;;;;;4984297;28;20038;-75
2021/05/27 05:03:27;;;;;;;0.20;0.20;;;19.00;52.20;;;;;;4997235;28;20117;-76
2021/05/27 05:05:55;;;;;;;1.33;0.98;;;18.90;51.00;;;;;;4997019;28;20470;-77
2021/05/27 05:08:23;;;;;;;0.60;0.15;;;18.90;51.40;;;;;;4994682;28;20100;-77
2021/05/27 05:10:51;;;;;;;1.45;0.10;;;18.80;52.20;;;;;;4991080;28;21742;-74
2021/05/27 05:13:19;;;;;;;1.48;0.10;;;18.80;51.80;;;;;;4990212;28;20029;-76
2021/05/27 05:15:49;;;;;;;1.02;0.20;;;18.90;51.90;;;;;;4999970;28;20039;-77
2021/05/27 05:18:17;;;;;;;0.20;0.10;;;18.80;51.50;;;;;;5000288;28;20493;-76
2021/05/27 05:20:51;;;;;;;0.55;0.10;;;18.80;52.20;;;;;;5002998;28;20027;-76
2021/05/27 05:23:19;;;;;;;1.27;0.20;;;18.80;51.80;;;;;;4996744;28;20072;-76
2021/05/27 05:25:47;;;;;;;0.65;0.10;;;18.70;52.60;;;;;;4996870;28;20417;-75
2021/05/27 05:28:15;;;;;;;1.88;0.20;;;18.80;52.40;;;;;;5001108;28;20544;-76
2021/05/27 05:30:44;;;;;;;1.30;0.38;;;18.70;52.60;;;;;;4997667;28;20026;-76
2021/05/27 05:33:12;;;;;;;2.65;0.35;;;18.70;52.90;;;;;;5003142;28;20040;-77
2021/05/27 05:35:39;;;;;;;0.50;0.13;;;18.80;53.10;;;;;;4993355;28;20142;-78
2021/05/27 05:38:07;;;;;;;0.65;0.20;;;18.80;52.80;;;;;;4999115;28;20038;-76
2021/05/27 05:40:35;;;;;;;2.28;0.30;;;18.80;53.00;;;;;;4995604;28;20022;-78
2021/05/27 05:43:03;;;;;;;4.07;0.68;;;18.80;53.20;;;;;;4993674;28;20492;-75
2021/05/27 05:45:30;;;;;;;0.88;0.20;;;18.80;53.10;;;;;;4996346;28;20187;-77
2021/05/27 05:48:00;;;;;;;1.38;0.38;;;18.70;53.50;;;;;;4998426;28;20101;-74
2021/05/27 05:53:20;;;;;;;7.05;0.45;;;18.50;52.20;;;;;;4994186;28;20085;-77
2021/05/27 05:55:49;;;;;;;2.83;0.20;;;18.50;52.80;;;;;;4993298;28;20045;-77
2021/05/27 05:58:16;;;;;;;0.40;0.20;;;18.30;52.50;;;;;;4988226;28;20054;-76
2021/05/27 06:00:47;;;;;;;3.13;0.30;;;18.30;52.70;;;;;;4988880;28;20026;-76
2021/05/27 06:03:15;;;;;;;102.80;11.43;;;18.40;52.80;;;;;;5004522;28;20485;-76
2021/05/27 06:05:42;;;;;;;6.50;0.65;;;18.50;52.00;;;;;;4997421;28;20088;-77
2021/05/27 06:08:09;;;;;;;3.08;0.35;;;18.50;52.40;;;;;;4996802;28;20492;-75
2021/05/27 06:10:37;;;;;;;2.35;0.30;;;18.50;53.00;;;;;;4988559;28;20033;-77
2021/05/27 06:13:04;;;;;;;1.05;0.20;;;18.60;52.40;;;;;;4999208;28;20657;-76
2021/05/27 06:15:32;;;;;;;3.17;0.10;;;18.70;52.70;;;;;;4997257;28;20477;-76
2021/05/27 06:18:01;;;;;;;4.25;0.57;;;18.70;52.30;;;;;;5000981;28;20061;-78
2021/05/27 06:20:30;;;;;;;18.45;1.67;;;18.80;52.90;;;;;;5000218;28;20058;-74
2021/05/27 06:22:57;;;;;;;3.03;0.30;;;18.80;53.50;;;;;;4995284;28;20099;-77
2021/05/27 06:25:25;;;;;;;3.03;0.45;;;18.80;52.30;;;;;;4994694;28;20476;-77
2021/05/27 06:27:54;;;;;;;5.70;0.50;;;18.60;52.60;;;;;;4996317;28;20034;-76
2021/05/27 06:30:23;;;;;;;10.27;0.50;;;18.60;53.50;;;;;;4997166;28;20491;-78
2021/05/27 06:32:51;;;;;;;4.80;0.50;;;18.40;53.90;;;;;;4995549;28;20022;-76
2021/05/27 06:35:18;;;;;;;3.70;0.40;;;18.30;53.90;;;;;;5001596;28;20064;-76
2021/05/27 06:37:46;;;;;;;1.60;0.28;;;18.20;54.40;;;;;;5003625;28;20037;-78
2021/05/27 06:40:19;;;;;;;2.80;0.50;;;18.00;55.40;;;;;;4999305;28;20030;-76
2021/05/27 06:42:47;;;;;;;1.40;0.30;;;17.80;56.70;;;;;;5000490;28;20049;-77
2021/05/27 06:45:17;;;;;;;2.83;0.50;;;17.60;56.80;;;;;;4998347;28;20033;-78
2021/05/27 06:47:45;;;;;;;2.50;0.30;;;17.50;57.20;;;;;;4999700;28;20672;-79
2021/05/27 06:50:13;;;;;;;1.20;0.82;;;17.30;57.60;;;;;;4994671;28;20088;-76
2021/05/27 06:52:41;;;;;;;0.93;0.50;;;17.20;57.50;;;;;;4999694;28;20481;-78
2021/05/27 06:55:10;;;;;;;1.90;0.47;;;17.00;58.30;;;;;;4997086;28;20485;-77
2021/05/27 06:57:38;;;;;;;1.20;0.57;;;16.90;59.80;;;;;;5000159;28;20371;-77
2021/05/27 07:00:06;;;;;;;0.70;0.30;;;16.80;58.70;;;;;;4994708;28;20099;-76
2021/05/27 07:02:34;;;;;;;2.60;0.30;;;16.70;59.30;;;;;;5002509;28;20425;-79
2021/05/27 07:05:02;;;;;;;4.88;0.30;;;16.60;59.80;;;;;;4993983;28;20033;-79
2021/05/27 07:07:30;;;;;;;4.00;0.70;;;16.40;59.60;;;;;;4994011;28;20041;-79
2021/05/27 07:09:57;;;;;;;2.20;0.50;;;16.40;60.10;;;;;;5002476;28;20076;-78
2021/05/27 07:12:24;;;;;;;0.68;0.20;;;16.40;59.20;;;;;;5001492;28;20058;-78
2021/05/27 07:14:52;;;;;;;8.93;1.30;;;16.30;59.40;;;;;;4999939;28;20096;-77
2021/05/27 07:17:19;;;;;;;2.20;0.80;;;16.20;59.50;;;;;;4999344;28;20041;-79
2021/05/27 07:19:47;;;;;;;5.90;0.95;;;16.20;59.60;;;;;;4992969;28;20164;-78
2021/05/27 07:22:14;;;;;;;5.97;1.30;;;16.10;59.60;;;;;;4994887;28;20427;-77
2021/05/27 07:24:41;;;;;;;1.30;0.30;;;16.10;59.80;;;;;;4991197;28;20034;-77
2021/05/27 07:27:09;;;;;;;1.70;0.60;;;16.00;60.30;;;;;;5002230;28;20543;-78
2021/05/27 07:29:36;;;;;;;1.70;0.40;;;15.90;60.40;;;;;;4996117;28;20385;-77
2021/05/27 07:32:06;;;;;;;1.60;0.40;;;15.90;60.40;;;;;;4999575;28;20041;-76
2021/05/27 07:34:34;;;;;;;1.50;0.55;;;15.80;60.30;;;;;;4998163;28;20227;-77
2021/05/27 07:37:02;;;;;;;3.92;1.13;;;15.80;60.60;;;;;;4996570;28;20449;-78
2021/05/27 07:39:29;;;;;;;2.00;0.90;;;15.70;60.40;;;;;;5003162;28;20069;-77
2021/05/27 07:41:56;;;;;;;2.38;0.80;;;15.70;60.70;;;;;;4999516;28;20022;-76
2021/05/27 07:44:24;;;;;;;1.83;1.30;;;15.70;60.70;;;;;;5001371;28;20041;-76
2021/05/27 07:46:51;;;;;;;3.17;1.80;;;15.60;60.70;;;;;;4995197;28;20022;-77
2021/05/27 07:49:18;;;;;;;9.98;5.45;;;15.60;60.90;;;;;;4999709;28;20041;-75
2021/05/27 07:51:58;;;;;;;14.35;8.15;;;15.60;60.80;;;;;;5075869;27;20446;-78
2021/05/27 07:54:26;;;;;;;11.27;6.28;;;15.50;61.10;;;;;;5073784;28;20103;-78
2021/05/27 07:56:54;;;;;;;20.92;11.95;;;15.40;60.60;;;;;;5068224;28;20424;-78
2021/05/27 07:59:22;;;;;;;21.73;11.50;;;15.50;61.10;;;;;;5070391;28;20468;-77
2021/05/27 08:01:49;;;;;;;38.95;23.08;;;15.40;60.90;;;;;;5074063;28;20024;-77
2021/05/27 08:04:17;;;;;;;53.35;30.58;;;15.40;61.10;;;;;;5078446;28;20111;-79
2021/05/27 08:06:44;;;;;;;32.20;17.33;;;15.30;61.20;;;;;;5074812;28;20074;-76
2021/05/27 08:09:12;;;;;;;36.85;19.60;;;15.20;61.40;;;;;;5071905;28;20025;-77
2021/05/27 08:11:42;;;;;;;24.80;14.32;;;15.20;62.70;;;;;;5069422;28;20114;-77
2021/05/27 08:14:10;;;;;;;21.27;11.48;;;15.10;61.90;;;;;;5073641;28;20035;-79
2021/05/27 08:16:38;;;;;;;10.30;5.45;;;15.10;61.80;;;;;;5074825;28;20028;-83
2021/05/27 08:19:06;;;;;;;4.55;2.08;;;15.10;62.40;;;;;;5073879;28;20429;-80
2021/05/27 08:21:34;;;;;;;5.80;3.75;;;15.00;62.30;;;;;;5077101;28;20035;-79
2021/05/27 08:24:01;;;;;;;3.22;1.27;;;15.00;62.50;;;;;;5072462;28;20372;-73
2021/05/27 08:26:29;;;;;;;2.13;0.95;;;15.00;63.30;;;;;;5071540;28;20025;-75
2021/05/27 08:28:56;;;;;;;4.25;2.70;;;14.90;64.70;;;;;;5079639;28;20025;-74
2021/05/27 08:31:23;;;;;;;4.45;2.72;;;14.80;64.40;;;;;;5066627;28;20120;-74
2021/05/27 08:33:51;;;;;;;3.95;1.50;;;14.70;65.50;;;;;;5070289;28;20376;-77
2021/05/27 08:36:18;;;;;;;4.43;2.95;;;14.60;66.20;;;;;;5072775;28;20020;-76
2021/05/27 08:38:46;;;;;;;14.68;8.45;;;14.50;66.30;;;;;;5073456;28;20429;-73
2021/05/27 08:41:17;;;;;;;15.65;9.60;;;14.50;66.70;;;;;;5073329;28;20064;-73
2021/05/27 08:43:46;;;;;;;13.50;6.82;;;14.40;66.70;;;;;;5072286;28;20033;-75
2021/05/27 08:46:14;;;;;;;7.68;4.00;;;14.40;67.00;;;;;;5067906;28;20487;-77
2021/05/27 08:48:45;;;;;;;4.57;2.40;;;14.30;67.60;;;;;;5068415;28;20040;-75
2021/05/27 08:51:13;;;;;;;3.83;1.35;;;14.20;68.50;;;;;;5077999;28;20041;-78
2021/05/27 08:53:40;;;;;;;8.13;0.90;;;14.10;67.80;;;;;;5077922;28;20019;-77
2021/05/27 08:56:08;;;;;;;1.17;0.43;;;14.10;67.80;;;;;;5070617;28;20053;-74
2021/05/27 08:58:36;;;;;;;2.00;0.90;;;14.00;68.10;;;;;;5073992;28;20039;-77
2021/05/27 09:01:03;;;;;;;5.90;1.67;;;14.00;68.40;;;;;;5065282;28;20032;-76
2021/05/27 09:03:44;;;;;;;4.00;1.33;;;13.90;68.70;;;;;;5053797;28;20424;-76
2021/05/27 09:06:15;;;;;;;1.90;0.95;;;13.90;68.80;;;;;;5058450;28;20028;-75
2021/05/27 09:08:43;;;;;;;2.95;0.40;;;13.80;69.20;;;;;;5055753;28;20475;-74
2021/05/27 09:11:24;;;;;;;1.55;0.40;;;13.80;69.20;;;;;;5052471;28;20407;-74
2021/05/27 09:14:01;;;;;;;0.32;0.20;;;13.70;69.50;;;;;;5055063;28;20024;-74
2021/05/27 09:16:30;;;;;;;1.65;0.43;;;13.70;69.20;;;;;;5059441;28;20172;-74
2021/05/27 09:19:13;;;;;;;0.82;0.20;;;13.80;69.30;;;;;;5062430;28;20506;-75
2021/05/27 09:21:42;;;;;;;1.58;0.63;;;13.70;69.30;;;;;;5063623;28;20037;-76
2021/05/27 09:24:10;;;;;;;1.95;0.38;;;13.70;69.40;;;;;;5060000;28;20463;-75
2021/05/27 09:26:55;;;;;;;1.00;0.20;;;13.60;69.50;;;;;;5063925;28;20021;-74
2021/05/27 09:29:23;;;;;;;1.65;0.40;;;13.60;69.40;;;;;;5061568;28;20026;-74
2021/05/27 09:32:15;;;;;;;1.55;0.52;;;13.60;69.50;;;;;;5064180;28;20047;-74
2021/05/27 09:34:54;;;;;;;3.45;0.90;;;13.60;70.00;;;;;;5058631;28;20401;-74
2021/05/27 09:37:22;;;;;;;2.88;0.90;;;13.60;70.00;;;;;;5054898;28;20048;-75
2021/05/27 09:39:51;;;;;;;3.70;1.10;;;13.60;70.20;;;;;;5052197;28;20086;-79
2021/05/27 09:42:19;;;;;;;1.30;0.63;;;13.50;70.40;;;;;;5066450;28;20027;-75
2021/05/27 09:44:47;;;;;;;4.53;1.10;;;13.50;70.80;;;;;;5059432;28;20040;-74
2021/05/27 09:47:14;;;;;;;1.05;0.70;;;13.40;71.00;;;;;;5055734;28;20025;-76
2021/05/27 09:50:03;;;;;;;1.75;0.90;;;13.40;71.40;;;;;;5048366;28;20029;-79
2021/05/27 09:52:49;;;;;;;0.77;0.50;;;13.30;71.70;;;;;;5060038;28;20032;-78
2021/05/27 09:55:19;;;;;;;3.90;1.15;;;13.30;71.40;;;;;;5057217;28;20075;-78
2021/05/27 09:57:49;;;;;;;2.88;0.95;;;13.30;72.00;;;;;;5061123;28;20041;-83
2021/05/27 10:00:22;;;;;;;1.50;0.70;;;13.20;72.10;;;;;;5061299;28;20033;-80
2021/05/27 10:02:51;;;;;;;1.73;0.75;;;13.20;72.10;;;;;;5062455;28;20021;-78
2021/05/27 10:05:19;;;;;;;1.33;0.70;;;13.20;72.30;;;;;;5058495;28;20184;-78
2021/05/27 10:07:49;;;;;;;2.97;0.50;;;13.10;72.50;;;;;;5056104;28;20104;-79
2021/05/27 10:10:22;;;;;;;1.65;0.70;;;13.00;73.00;;;;;;5059358;28;20033;-78
2021/05/27 10:12:54;;;;;;;2.30;0.80;;;13.00;73.20;;;;;;5054189;28;20073;-78
2021/05/27 10:15:24;;;;;;;2.72;0.80;;;12.90;73.40;;;;;;5052672;28;20021;-78
2021/05/27 10:17:56;;;;;;;0.95;0.40;;;12.90;73.50;;;;;;5060254;28;20116;-77
2021/05/27 10:20:25;;;;;;;0.80;0.52;;;12.90;73.70;;;;;;5058883;28;20078;-78
2021/05/27 10:22:56;;;;;;;2.13;0.52;;;12.90;74.20;;;;;;5057168;28;20108;-78
2021/05/27 10:25:24;;;;;;;3.53;0.50;;;12.80;73.80;;;;;;5052170;28;20117;-77
2021/05/27 10:27:54;;;;;;;0.77;0.38;;;12.80;74.60;;;;;;5057594;28;20025;-78
2021/05/27 10:30:22;;;;;;;1.52;0.38;;;12.80;74.90;;;;;;5057258;28;20036;-79
2021/05/27 10:32:59;;;;;;;1.08;0.30;;;12.70;75.00;;;;;;5052512;28;20024;-76
2021/05/27 10:35:45;;;;;;;1.20;0.30;;;12.60;74.70;;;;;;5044611;28;20020;-77
2021/05/27 10:38:13;;;;;;;1.75;0.22;;;12.60;75.40;;;;;;5047235;28;20736;-77
2021/05/27 10:40:42;;;;;;;1.80;0.30;;;12.60;75.60;;;;;;5047169;28;20119;-75
2021/05/27 10:43:12;;;;;;;0.55;0.20;;;12.60;75.10;;;;;;5060936;28;20047;-76
2021/05/27 10:45:58;;;;;;;0.47;0.20;;;12.60;75.80;;;;;;5057773;28;20029;-75
2021/05/27 10:48:26;;;;;;;1.10;0.63;;;12.60;76.20;;;;;;5053116;28;20631;-76
2021/05/27 10:51:00;;;;;;;2.58;0.55;;;12.60;76.10;;;;;;5050650;28;20047;-76
2021/05/27 10:53:40;;;;;;;0.57;0.30;;;12.50;76.40;;;;;;5056424;28;20657;-76
2021/05/27 10:56:09;;;;;;;1.08;0.40;;;12.60;75.60;;;;;;5038770;28;20493;-75
2021/05/27 10:59:06;;;;;;;3.15;0.80;;;12.50;75.50;;;;;;5038113;28;20025;-77
2021/05/27 11:01:37;;;;;;;1.20;0.88;;;12.50;75.50;;;;;;5042688;28;20537;-75
2021/05/27 11:04:33;;;;;;;1.13;0.32;;;12.50;75.90;;;;;;5050733;28;20028;-75
2021/05/27 11:07:14;;;;;;;0.55;0.30;;;12.50;75.90;;;;;;5053695;28;20506;-75
2021/05/27 11:09:42;;;;;;;0.63;0.32;;;12.50;76.30;;;;;;5061930;28;20031;-75
2021/05/27 11:12:09;;;;;;;2.35;0.38;;;12.40;77.00;;;;;;5064511;28;20040;-76
2021/05/27 11:15:03;;;;;;;1.48;0.50;;;12.40;77.30;;;;;;5052249;28;20032;-75
2021/05/27 11:17:31;;;;;;;1.70;0.70;;;12.40;77.20;;;;;;5055673;28;20032;-78
2021/05/27 11:20:03;;;;;;;2.28;0.60;;;12.30;77.00;;;;;;5050304;28;20033;-76
2021/05/27 11:22:44;;;;;;;1.67;1.02;;;12.40;77.50;;;;;;5060687;28;20055;-76
2021/05/27 11:25:12;;;;;;;1.08;0.60;;;12.30;77.30;;;;;;5051922;28;20055;-77
2021/05/27 11:27:43;;;;;;;1.05;0.57;;;12.30;77.60;;;;;;5062991;28;20016;-79
2021/05/27 11:30:37;;;;;;;2.45;0.38;;;12.30;78.00;;;;;;5054961;28;20506;-79
2021/05/27 11:33:16;;;;;;;3.80;0.80;;;12.30;78.40;;;;;;5050175;28;20060;-79
2021/05/27 11:35:49;;;;;;;3.53;0.45;;;12.20;78.30;;;;;;5061003;28;20136;-76
2021/05/27 11:38:20;;;;;;;0.43;0.20;;;12.20;77.80;;;;;;5052803;28;20419;-77
2021/05/27 11:40:51;;;;;;;1.90;1.05;;;12.20;78.00;;;;;;5050758;28;20036;-80
2021/05/27 11:43:27;;;;;;;0.43;0.13;;;12.20;78.40;;;;;;5060793;28;20415;-79
2021/05/27 11:45:56;;;;;;;0.57;0.43;;;12.20;78.70;;;;;;5058999;28;20031;-77
2021/05/27 11:48:30;;;;;;;3.40;0.50;;;12.30;78.40;;;;;;5059282;28;20487;-78
2021/05/27 11:51:02;;;;;;;3.05;0.75;;;12.30;78.40;;;;;;5053100;28;20088;-76
2021/05/27 11:53:58;;;;;;;0.55;0.20;;;12.30;78.60;;;;;;5061657;28;20032;-78
2021/05/27 11:56:40;;;;;;;4.30;0.60;;;12.30;78.30;;;;;;5050943;28;20096;-79
2021/05/27 11:59:26;;;;;;;4.70;0.90;;;12.30;79.10;;;;;;5052249;28;20420;-77
2021/05/27 12:02:00;;;;;;;5.03;0.60;;;12.30;79.30;;;;;;5052778;28;20047;-76
2021/05/27 12:04:32;;;;;;;4.05;1.02;;;12.20;79.40;;;;;;5053483;28;20079;-76
2021/05/27 12:06:59;;;;;;;2.33;0.60;;;12.10;79.50;;;;;;5059476;28;20025;-77
2021/05/27 12:09:45;;;;;;;1.13;0.40;;;12.10;79.50;;;;;;5057028;28;20029;-76
2021/05/27 12:12:16;;;;;;;7.13;0.50;;;12.00;80.00;;;;;;5062625;28;20516;-76
2021/05/27 12:14:53;;;;;;;1.23;0.40;;;11.90;80.50;;;;;;5058202;28;20059;-78
2021/05/27 12:17:31;;;;;;;1.00;0.20;;;12.00;80.40;;;;;;5059011;28;20025;-75
2021/05/27 12:20:12;;;;;;;0.57;0.30;;;12.10;80.50;;;;;;5052573;28;20459;-77
2021/05/27 12:22:56;;;;;;;0.25;0.10;;;12.20;80.50;;;;;;5056964;28;20025;-77
2021/05/27 12:25:27;;;;;;;2.38;0.68;;;12.20;80.50;;;;;;5046186;28;20102;-78
2021/05/27 12:28:00;;;;;;;1.08;0.17;;;12.30;80.40;;;;;;5049740;28;20021;-77
2021/05/27 12:30:27;;;;;;;2.05;0.30;;;12.40;80.20;;;;;;5054283;28;20395;-78
2021/05/27 12:32:56;;;;;;;0.93;0.30;;;12.40;80.20;;;;;;5053780;28;20040;-82
2021/05/27 12:35:31;;;;;;;0.77;0.20;;;12.50;80.10;;;;;;5049921;28;20055;-75
2021/05/27 12:37:59;;;;;;;1.05;0.38;;;12.50;80.10;;;;;;5058051;28;20096;-76
2021/05/27 12:40:28;;;;;;;0.85;0.20;;;12.50;80.00;;;;;;5058735;28;20028;-76
2021/05/27 12:42:58;;;;;;;3.15;0.30;;;12.50;79.80;;;;;;5060926;28;20091;-76
2021/05/27 12:45:38;;;;;;;1.92;0.30;;;12.60;79.70;;;;;;5062455;28;20033;-77
2021/05/27 12:48:20;;;;;;;1.23;0.30;;;12.70;79.50;;;;;;5062137;28;20032;-76
2021/05/27 12:51:02;;;;;;;0.10;0.10;;;12.70;79.50;;;;;;5061442;28;20041;-78
2021/05/27 12:53:36;;;;;;;0.98;0.30;;;12.80;79.30;;;;;;5057806;28;20552;-77
2021/05/27 12:56:22;;;;;;;2.72;0.17;;;12.80;79.40;;;;;;5058345;28;20476;-77
2021/05/27 12:59:11;;;;;;;0.47;0.20;;;12.70;79.60;;;;;;5058999;28;20031;-76
2021/05/27 13:01:40;;;;;;;0.47;0.20;;;12.60;80.20;;;;;;5060259;28;20028;-76
2021/05/27 13:04:10;;;;;;;0.35;0.20;;;12.60;80.20;;;;;;5059342;28;20033;-76
2021/05/27 13:06:41;;;;;;;1.05;0.10;;;12.60;80.40;;;;;;5056704;28;20013;-76
2021/05/27 13:09:10;;;;;;;0.93;0.30;;;12.60;80.70;;;;;;5063394;28;20025;-75